This is the latest recevied weather packets stored in our database for station/object KN6ZYR. If no packets are shown the sender has not sent any weather packets the latest 10 day(s).
| Time | Temp. | Humidity | Pressure | Rain* | Wind** | Luminosity | Snow |
|---|---|---|---|---|---|---|---|
| 1777545151 | 11.67° C | 38% | 1020.9 hPa | 0 mm | - | 0 W/m² | - |
| 1777544848 | 10° C | 51% | 1020.7 hPa | 0 mm | - | 0 W/m² | - |
| 1777544543 | 9.44° C | 55% | 1020.8 hPa | 0 mm | - | 0 W/m² | - |
| 1777544240 | 8.89° C | 58% | 1020.9 hPa | 0 mm | - | 0 W/m² | - |
| 1777543937 | 8.89° C | 57% | 1020.9 hPa | 0 mm | - | 0 W/m² | - |
| 1777543634 | 9.44° C | 55% | 1020.9 hPa | 0 mm | - | 0 W/m² | - |
| 1777543330 | 10° C | 53% | 1021.2 hPa | 0 mm | - | 0 W/m² | - |
| 1777543025 | 10.56° C | 48% | 1020.7 hPa | 0 mm | - | 0 W/m² | - |
| 1777542722 | 10° C | 46% | 1020.6 hPa | 0 mm | - | 0 W/m² | - |
| 1777542419 | 9.44° C | 50% | 1020.7 hPa | 0 mm | - | 0 W/m² | - |
| 1777542115 | 8.89° C | 58% | 1020.7 hPa | 0 mm | - | 0 W/m² | - |
| 1777541812 | 8.33° C | 61% | 1020.8 hPa | 0 mm | - | 0 W/m² | - |
| 1777541509 | 8.33° C | 59% | 1020.7 hPa | 0 mm | - | 0 W/m² | - |
| 1777541206 | 8.89° C | 59% | 1020.9 hPa | 0 mm | - | 0 W/m² | - |
| 1777540902 | 8.89° C | 58% | 1020.8 hPa | 0 mm | - | 0 W/m² | - |
| 1777540600 | 9.44° C | 57% | 1021 hPa | 0 mm | - | 0 W/m² | - |
| 1777540296 | 9.44° C | 55% | 1021 hPa | 0 mm | - | 0 W/m² | - |
| 1777539992 | 10.56° C | 51% | 1021 hPa | 0 mm | - | 0 W/m² | - |
| 1777539688 | 10.56° C | 49% | 1020.9 hPa | 0 mm | - | 0 W/m² | - |
| 1777539385 | 11.11° C | 47% | 1021 hPa | 0 mm | - | 0 W/m² | - |
| 1777539081 | 11.67° C | 47% | 1021.5 hPa | 0 mm | - | 0 W/m² | - |
| 1777538778 | 11.67° C | 43% | 1021.3 hPa | 0 mm | - | 0 W/m² | - |
| 1777538472 | 11.67° C | 43% | 1021.4 hPa | 0 mm | - | 0 W/m² | - |
| 1777538169 | 11.67° C | 43% | 1021.3 hPa | 0 mm | - | 0 W/m² | - |
| 1777537864 | 11.67° C | 44% | 1021.2 hPa | 0 mm | - | 0 W/m² | - |
* Rain latest hour (hover to see other rain measurements)
** Current wind speed in m/s (hover to see current wind gust speed)